createdAt,value
2022-11-04T00:01:42.481Z,100293.75
2022-11-04T00:04:11.810Z,100292.06
2022-11-04T00:06:40.314Z,100288.59
2022-11-04T00:09:10.724Z,100294.53
2022-11-04T00:11:57.233Z,100281.56
2022-11-04T00:14:25.239Z,100290.16
2022-11-04T00:17:11.212Z,100285.91
2022-11-04T00:19:57.877Z,100284.78
2022-11-04T00:22:44.463Z,100277.00
2022-11-04T00:25:31.682Z,100275.09
2022-11-04T00:28:32.169Z,100262.25
2022-11-04T00:31:22.149Z,100251.88
2022-11-04T00:33:51.322Z,100260.31
2022-11-04T00:36:19.788Z,100264.00
2022-11-04T00:38:47.832Z,100262.34
2022-11-04T00:41:28.238Z,100258.09
2022-11-04T00:44:04.468Z,100247.66
2022-11-04T00:46:33.817Z,100248.66
2022-11-04T00:49:02.000Z,100240.00
2022-11-04T00:51:29.684Z,100227.66
2022-11-04T00:54:00.988Z,100236.13
2022-11-04T00:56:28.628Z,100229.31
2022-11-04T00:58:59.044Z,100223.13
2022-11-04T01:01:26.807Z,100231.09
2022-11-04T01:03:55.949Z,100227.44
2022-11-04T01:06:25.210Z,100217.06
2022-11-04T01:08:57.355Z,100208.44
2022-11-04T01:11:25.275Z,100208.38
2022-11-04T01:13:53.325Z,100203.84
2022-11-04T01:16:21.182Z,100207.47
2022-11-04T01:18:49.728Z,100199.53
2022-11-04T01:21:17.971Z,100190.72
2022-11-04T01:23:46.869Z,100189.03
2022-11-04T01:26:21.053Z,100178.72
2022-11-04T01:28:49.114Z,100172.47
2022-11-04T01:31:21.609Z,100173.38
2022-11-04T01:33:51.211Z,100182.88
2022-11-04T01:36:20.094Z,100182.94
2022-11-04T01:38:49.232Z,100169.63
2022-11-04T01:41:28.758Z,100166.03
2022-11-04T01:44:23.982Z,100167.97
2022-11-04T01:46:54.062Z,100162.16
2022-11-04T01:49:39.181Z,100157.72
2022-11-04T01:52:16.027Z,100144.88
2022-11-04T01:54:48.090Z,100155.56
2022-11-04T01:57:22.812Z,100144.31
2022-11-04T01:59:50.785Z,100144.97
2022-11-04T02:02:18.520Z,100145.78
2022-11-04T02:04:47.142Z,100133.56
2022-11-04T02:07:14.930Z,100134.56
2022-11-04T02:09:44.274Z,100128.16
2022-11-04T02:12:30.693Z,100122.22
2022-11-04T02:14:59.101Z,100119.44
2022-11-04T02:18:03.237Z,100119.22
2022-11-04T02:20:49.469Z,100121.69
2022-11-04T02:23:49.843Z,100118.31
2022-11-04T02:26:32.819Z,100107.66
2022-11-04T02:29:20.528Z,100091.03
2022-11-04T02:31:55.234Z,100080.50
2022-11-04T02:35:00.229Z,100077.94
2022-11-04T02:37:56.571Z,100075.03
2022-11-04T02:40:56.235Z,100078.47
2022-11-04T02:43:47.060Z,100079.84
2022-11-04T02:46:33.555Z,100080.78
2022-11-04T02:49:12.806Z,100070.22
2022-11-04T02:51:53.709Z,100074.63
2022-11-04T02:54:31.607Z,100072.00
2022-11-04T02:57:02.156Z,100059.94
2022-11-04T03:00:00.083Z,100067.97
2022-11-04T03:02:56.055Z,100062.81
2022-11-04T03:05:32.920Z,100059.22
2022-11-04T03:08:05.852Z,100060.31
2022-11-04T03:10:38.523Z,100051.63
2022-11-04T03:13:17.618Z,100051.34
2022-11-04T03:15:53.072Z,100056.69
2022-11-04T03:18:36.459Z,100050.31
2022-11-04T03:21:09.584Z,100051.41
2022-11-04T03:23:37.736Z,100043.34
2022-11-04T03:26:33.054Z,100040.66
2022-11-04T03:29:58.348Z,100037.25
2022-11-04T03:32:58.412Z,100044.13
2022-11-04T03:35:28.019Z,100049.16
2022-11-04T03:37:57.097Z,100049.25
2022-11-04T03:40:25.811Z,100053.34
2022-11-04T03:43:12.640Z,100050.31
2022-11-04T03:45:42.045Z,100050.31
2022-11-04T03:48:10.166Z,100046.88
2022-11-04T03:50:44.179Z,100030.66
2022-11-04T03:53:13.991Z,100047.09
2022-11-04T03:56:10.780Z,100040.22
2022-11-04T03:58:53.331Z,100034.75
2022-11-04T04:01:23.936Z,100031.69
2022-11-04T04:04:23.449Z,100038.69
2022-11-04T04:06:57.046Z,100033.13
2022-11-04T04:09:32.797Z,100036.50
2022-11-04T04:12:06.294Z,100034.84
2022-11-04T04:15:03.223Z,100034.59
2022-11-04T04:17:38.285Z,100030.44
2022-11-04T04:20:19.469Z,100025.66
2022-11-04T04:22:54.647Z,100019.59
2022-11-04T04:25:45.621Z,100019.38
2022-11-04T04:28:16.207Z,100012.72
2022-11-04T04:30:46.129Z,100015.31
2022-11-04T04:33:17.512Z,100006.41
2022-11-04T04:35:50.768Z,100002.78
2022-11-04T04:38:43.732Z,99999.25
2022-11-04T04:41:46.862Z,100004.66
2022-11-04T04:44:39.080Z,99995.06
2022-11-04T04:47:08.979Z,99995.66
2022-11-04T04:49:36.771Z,99999.00
2022-11-04T04:52:08.112Z,100004.28
2022-11-04T04:54:35.967Z,100003.44
2022-11-04T04:57:03.929Z,100011.13
2022-11-04T04:59:31.910Z,100007.19
2022-11-04T05:01:59.941Z,100009.47
2022-11-04T05:04:27.885Z,100008.69
2022-11-04T05:06:55.836Z,99997.56
2022-11-04T05:09:23.573Z,100006.28
2022-11-04T05:11:51.451Z,100008.81
2022-11-04T05:14:19.783Z,100003.13
2022-11-04T05:16:47.499Z,100002.91
2022-11-04T05:19:15.458Z,99996.13
2022-11-04T05:21:43.212Z,100005.50
2022-11-04T05:24:11.654Z,100002.78
2022-11-04T05:26:39.310Z,99994.16
2022-11-04T05:29:07.274Z,99988.41
2022-11-04T05:31:35.022Z,99992.44
2022-11-04T05:34:03.629Z,99996.88
2022-11-04T05:36:33.162Z,99996.63
2022-11-04T05:39:01.152Z,99999.59
2022-11-04T05:41:28.963Z,99999.13
2022-11-04T05:44:02.098Z,99996.22
2022-11-04T05:46:30.836Z,99980.84
2022-11-04T05:48:58.864Z,99990.91
2022-11-04T05:51:28.573Z,99987.47
2022-11-04T05:53:56.643Z,99980.38
2022-11-04T05:56:24.328Z,99984.81
2022-11-04T05:58:52.469Z,99976.94
2022-11-04T06:01:55.869Z,99986.16
2022-11-04T06:04:23.943Z,99975.91
2022-11-04T06:06:51.896Z,99988.13
2022-11-04T06:09:19.864Z,99975.25
2022-11-04T06:11:47.664Z,99979.16
2022-11-04T06:14:18.881Z,99973.94
2022-11-04T06:16:46.737Z,99967.03
2022-11-04T06:19:16.176Z,99969.28
2022-11-04T06:21:44.143Z,99963.84
2022-11-04T06:24:12.112Z,99967.19
2022-11-04T06:26:39.838Z,99961.22
2022-11-04T06:29:07.897Z,99952.31
2022-11-04T06:31:35.951Z,99955.88
2022-11-04T06:34:04.526Z,99949.94
2022-11-04T06:36:32.151Z,99951.63
2022-11-04T06:39:04.678Z,99954.97
2022-11-04T06:41:32.891Z,99961.53
2022-11-04T06:44:01.138Z,99956.09
2022-11-04T06:46:39.698Z,99960.19
2022-11-04T06:49:16.255Z,99955.16
2022-11-04T06:51:44.032Z,99952.09
2022-11-04T06:54:12.081Z,99947.84
2022-11-04T06:56:40.362Z,99947.66
2022-11-04T06:59:09.745Z,99942.88
2022-11-04T07:01:37.772Z,99950.63
2022-11-04T07:04:06.004Z,99937.38
2022-11-04T07:06:34.788Z,99945.47
2022-11-04T07:09:05.001Z,99934.06
2022-11-04T07:11:33.856Z,99937.31
2022-11-04T07:14:01.789Z,99934.72
2022-11-04T07:16:29.655Z,99935.34
2022-11-04T07:18:57.725Z,99941.31
2022-11-04T07:21:25.573Z,99939.06
2022-11-04T07:23:53.608Z,99929.84
2022-11-04T07:26:21.829Z,99930.03
2022-11-04T07:28:49.843Z,99927.59
2022-11-04T07:31:18.155Z,99941.66
2022-11-04T07:33:51.482Z,99938.28
2022-11-04T07:36:19.599Z,99932.44
2022-11-04T07:38:48.399Z,99931.25
2022-11-04T07:41:17.039Z,99932.41
2022-11-04T07:43:49.930Z,99919.97
2022-11-04T07:46:18.086Z,99923.19
2022-11-04T07:48:46.538Z,99926.19
2022-11-04T07:51:17.807Z,99917.38
2022-11-04T07:53:46.719Z,99918.22
2022-11-04T07:56:14.816Z,99920.16
2022-11-04T07:58:43.227Z,99916.53
2022-11-04T08:01:15.185Z,99923.56
2022-11-04T08:03:43.529Z,99919.66
2022-11-04T08:06:13.566Z,99917.91
2022-11-04T08:08:43.662Z,99909.44
2022-11-04T08:11:18.123Z,99912.22
2022-11-04T08:13:47.629Z,99921.53
2022-11-04T08:16:19.130Z,99912.94
2022-11-04T08:18:48.891Z,99911.66
2022-11-04T08:21:17.764Z,99909.66
2022-11-04T08:23:46.245Z,99909.59
2022-11-04T08:26:17.004Z,99902.06
2022-11-04T08:28:45.354Z,99911.50
2022-11-04T08:31:15.699Z,99909.91
2022-11-04T08:33:44.679Z,99916.59
2022-11-04T08:36:21.657Z,99906.63
2022-11-04T08:38:49.862Z,99906.75
2022-11-04T08:41:20.557Z,99900.78
2022-11-04T08:43:48.581Z,99891.72
2022-11-04T08:46:16.645Z,99889.53
2022-11-04T08:48:46.081Z,99888.56
2022-11-04T08:51:19.198Z,99897.31
2022-11-04T08:53:47.199Z,99892.66
2022-11-04T08:56:27.756Z,99896.59
2022-11-04T08:58:58.338Z,99882.38
2022-11-04T09:01:34.226Z,99876.94
2022-11-04T09:04:04.795Z,99872.50
2022-11-04T09:06:36.064Z,99881.19
2022-11-04T09:09:05.789Z,99878.47
2022-11-04T09:11:36.595Z,99887.53
2022-11-04T09:14:05.648Z,99871.00
2022-11-04T09:16:34.949Z,99868.84
2022-11-04T09:19:03.643Z,99869.22
2022-11-04T09:21:31.672Z,99867.25
2022-11-04T09:24:00.113Z,99862.03
2022-11-04T09:26:28.285Z,99863.38
2022-11-04T09:28:58.036Z,99857.22
2022-11-04T09:31:28.336Z,99868.72
2022-11-04T09:33:56.935Z,99857.97
2022-11-04T09:36:25.019Z,99851.38
2022-11-04T09:38:53.085Z,99845.19
2022-11-04T09:41:42.218Z,99855.00
2022-11-04T09:44:59.730Z,99855.91
2022-11-04T09:47:27.197Z,99853.69
2022-11-04T09:49:59.212Z,99847.84
2022-11-04T09:52:31.267Z,99847.72
2022-11-04T09:55:14.907Z,99841.41
2022-11-04T09:57:42.640Z,99842.44
2022-11-04T10:00:16.432Z,99844.69
2022-11-04T10:02:58.119Z,99839.19
2022-11-04T10:05:47.378Z,99828.84
2022-11-04T10:08:37.904Z,99823.19
2022-11-04T10:11:19.318Z,99821.28
2022-11-04T10:14:17.514Z,99816.13
2022-11-04T10:16:48.159Z,99813.84
2022-11-04T10:19:47.832Z,99821.16
2022-11-04T10:22:30.845Z,99822.31
2022-11-04T10:25:04.943Z,99809.66
2022-11-04T10:27:37.398Z,99816.59
2022-11-04T10:30:25.903Z,99810.50
2022-11-04T10:33:03.448Z,99802.34
2022-11-04T10:35:34.249Z,99798.56
2022-11-04T10:38:22.583Z,99794.59
2022-11-04T10:40:55.110Z,99802.78
2022-11-04T10:43:34.012Z,99795.78
2022-11-04T10:46:26.450Z,99788.75
2022-11-04T10:49:08.421Z,99784.38
2022-11-04T10:51:36.138Z,99779.44
2022-11-04T10:54:08.921Z,99774.19
2022-11-04T10:56:45.154Z,99768.28
2022-11-04T10:59:20.511Z,99765.53
2022-11-04T11:02:00.476Z,99765.38
2022-11-04T11:04:33.568Z,99767.75
2022-11-04T11:07:12.611Z,99764.34
2022-11-04T11:09:54.284Z,99754.84
2022-11-04T11:12:50.556Z,99757.66
2022-11-04T11:15:26.366Z,99766.78
2022-11-04T11:18:17.686Z,99760.28
2022-11-04T11:21:03.350Z,99758.00
2022-11-04T11:23:46.726Z,99760.09
2022-11-04T11:26:20.987Z,99751.13
2022-11-04T11:28:59.150Z,99748.78
2022-11-04T11:31:37.013Z,99746.22
2022-11-04T11:34:13.780Z,99743.44
2022-11-04T11:36:44.778Z,99740.59
2022-11-04T11:39:13.863Z,99734.09
2022-11-04T11:41:59.925Z,99735.78
2022-11-04T11:44:38.809Z,99733.31
2022-11-04T11:47:18.930Z,99723.97
2022-11-04T11:49:46.622Z,99729.19
2022-11-04T11:52:33.688Z,99721.56
2022-11-04T11:55:11.768Z,99727.03
2022-11-04T12:01:05.305Z,99722.13
2022-11-04T12:09:37.976Z,99715.31
2022-11-04T12:12:26.667Z,99715.00
2022-11-04T12:15:03.297Z,99731.28
2022-11-04T12:18:10.237Z,99723.97
2022-11-04T12:20:48.199Z,99724.31
2022-11-04T12:23:45.364Z,99713.53
2022-11-04T12:26:27.383Z,99713.97
2022-11-04T12:29:27.437Z,99709.03
2022-11-04T12:32:27.202Z,99703.94
2022-11-04T12:35:19.568Z,99711.69
2022-11-04T12:38:09.155Z,99709.31
2022-11-04T12:41:37.543Z,99706.09
2022-11-04T12:44:22.784Z,99702.19
2022-11-04T12:47:03.720Z,99698.28
2022-11-04T12:49:46.465Z,99706.25
2022-11-04T12:52:52.641Z,99699.84
2022-11-04T12:55:44.292Z,99693.91
2022-11-04T12:58:32.986Z,99687.69
2022-11-04T13:01:42.185Z,99696.47
2022-11-04T13:04:14.432Z,99683.66
2022-11-04T13:06:54.038Z,99692.09
2022-11-04T13:09:51.359Z,99690.66
2022-11-04T13:12:23.614Z,99689.88
2022-11-04T13:15:01.977Z,99695.06
2022-11-04T13:17:39.080Z,99696.19
2022-11-04T13:20:14.111Z,99688.25
2022-11-04T13:22:45.740Z,99688.25
2022-11-04T13:25:38.672Z,99678.41
2022-11-04T13:28:13.738Z,99683.34
2022-11-04T13:30:59.081Z,99696.66
2022-11-04T13:34:08.330Z,99692.50
2022-11-04T13:37:08.646Z,99690.22
2022-11-04T13:39:48.960Z,99695.66
2022-11-04T13:42:34.969Z,99698.91
2022-11-04T13:45:18.826Z,99693.66
2022-11-04T13:47:58.542Z,99696.13
2022-11-04T13:50:51.914Z,99705.13
2022-11-04T13:53:19.887Z,99697.25
2022-11-04T13:55:51.431Z,99699.47
2022-11-04T13:58:25.862Z,99704.72
2022-11-04T14:01:26.151Z,99704.72
2022-11-04T14:04:05.041Z,99703.19
2022-11-04T14:06:48.178Z,99707.00
2022-11-04T14:09:41.854Z,99718.41
2022-11-04T14:12:17.256Z,99712.16
2022-11-04T14:14:52.412Z,99719.72
2022-11-04T14:17:35.562Z,99709.81
2022-11-04T14:20:06.624Z,99713.66
2022-11-04T14:22:59.043Z,99708.94
2022-11-04T14:25:32.767Z,99711.28
2022-11-04T14:28:16.263Z,99710.84
2022-11-04T14:30:55.594Z,99716.25
2022-11-04T14:33:35.384Z,99711.03
2022-11-04T14:36:21.843Z,99713.06
2022-11-04T14:39:04.205Z,99712.59
2022-11-04T14:41:49.735Z,99708.19
2022-11-04T14:44:38.128Z,99714.59
2022-11-04T14:47:29.905Z,99703.34
2022-11-04T14:50:05.697Z,99706.81
2022-11-04T14:52:46.282Z,99704.53
2022-11-04T14:55:15.987Z,99696.69
2022-11-04T14:57:52.120Z,99701.56
2022-11-04T15:00:23.320Z,99698.59
2022-11-04T15:03:10.468Z,99703.97
2022-11-04T15:05:46.874Z,99705.38
2022-11-04T15:08:42.445Z,99708.28
2022-11-04T15:11:41.544Z,99713.88
2022-11-04T15:14:21.270Z,99706.56
2022-11-04T15:16:55.641Z,99702.41
2022-11-04T15:19:36.612Z,99701.41
2022-11-04T15:22:06.654Z,99701.00
2022-11-04T15:24:35.764Z,99695.19
2022-11-04T15:27:06.374Z,99697.47
2022-11-04T15:29:34.330Z,99701.63
2022-11-04T15:32:05.800Z,99701.72
2022-11-04T15:34:35.504Z,99704.59
2022-11-04T15:37:05.861Z,99701.06
2022-11-04T15:39:44.602Z,99706.56
2022-11-04T15:42:36.874Z,99700.44
2022-11-04T15:45:33.773Z,99711.13
2022-11-04T15:48:25.978Z,99705.66
2022-11-04T15:51:01.875Z,99710.47
2022-11-04T15:53:29.931Z,99708.84
2022-11-04T15:55:57.823Z,99713.72
2022-11-04T15:58:25.830Z,99717.69
2022-11-04T16:00:57.067Z,99729.25
2022-11-04T16:03:25.903Z,99729.44
2022-11-04T16:06:05.224Z,99733.53
2022-11-04T16:08:34.062Z,99742.81
2022-11-04T16:11:20.090Z,99733.13
2022-11-04T16:13:48.160Z,99727.09
2022-11-04T16:16:25.622Z,99734.75
2022-11-04T16:18:54.606Z,99733.78
2022-11-04T16:21:32.202Z,99730.31
2022-11-04T16:24:08.475Z,99725.84
2022-11-04T16:26:46.303Z,99724.00
2022-11-04T16:29:32.388Z,99730.56
2022-11-04T16:32:21.867Z,99724.50
2022-11-04T16:34:56.518Z,99726.34
2022-11-04T16:37:25.756Z,99726.34
2022-11-04T16:39:53.884Z,99724.50
2022-11-04T16:42:22.882Z,99725.91
2022-11-04T16:44:55.642Z,99725.47
2022-11-04T16:47:25.967Z,99728.50
2022-11-04T16:49:53.944Z,99722.94
2022-11-04T16:52:26.865Z,99729.44
2022-11-04T16:54:58.059Z,99725.91
2022-11-04T16:57:26.843Z,99724.84
2022-11-04T16:59:55.932Z,99729.31
2022-11-04T17:02:31.980Z,99729.59
2022-11-04T17:05:00.029Z,99731.44
2022-11-04T17:07:47.318Z,99721.38
2022-11-04T17:10:25.260Z,99724.84
2022-11-04T17:12:53.187Z,99721.50
2022-11-04T17:15:21.457Z,99714.81
2022-11-04T17:17:49.209Z,99712.59
2022-11-04T17:20:18.426Z,99708.72
2022-11-04T17:22:47.348Z,99704.81
2022-11-04T17:25:26.396Z,99710.50
2022-11-04T17:27:54.353Z,99712.94
2022-11-04T17:30:23.541Z,99691.31
2022-11-04T17:32:51.872Z,99684.06
2022-11-04T17:35:19.923Z,99694.41
2022-11-04T17:37:50.738Z,99689.47
2022-11-04T17:40:20.241Z,99682.16
2022-11-04T17:43:11.488Z,99672.53
2022-11-04T17:45:44.260Z,99672.28
2022-11-04T17:48:14.224Z,99674.97
2022-11-04T17:50:42.506Z,99675.59
2022-11-04T17:53:10.528Z,99675.31
2022-11-04T17:55:40.629Z,99670.16
2022-11-04T17:58:08.711Z,99675.44
2022-11-04T18:00:36.732Z,99669.88
2022-11-04T18:03:06.804Z,99675.09
2022-11-04T18:05:35.160Z,99670.94
2022-11-04T18:08:02.827Z,99667.25
2022-11-04T18:10:30.904Z,99668.84
2022-11-04T18:12:58.704Z,99665.38
2022-11-04T18:15:26.631Z,99658.25
2022-11-04T18:17:54.359Z,99660.59
2022-11-04T18:20:22.364Z,99648.94
2022-11-04T18:22:50.075Z,99650.00
2022-11-04T18:25:18.589Z,99649.06
2022-11-04T18:27:48.908Z,99644.25
2022-11-04T18:30:17.149Z,99653.41
2022-11-04T18:32:44.866Z,99647.66
2022-11-04T18:35:12.839Z,99665.19
2022-11-04T18:37:46.737Z,99659.09
2022-11-04T18:40:16.039Z,99658.25
2022-11-04T18:42:44.338Z,99653.16
2022-11-04T18:45:12.690Z,99652.22
2022-11-04T18:47:40.561Z,99647.66
2022-11-04T18:50:08.826Z,99654.56
2022-11-04T18:52:36.982Z,99657.97
2022-11-04T18:55:05.475Z,99654.44
2022-11-04T18:57:33.284Z,99652.47
2022-11-04T19:00:01.296Z,99653.00
2022-11-04T19:02:29.071Z,99654.56
2022-11-04T19:04:57.167Z,99659.94
2022-11-04T19:07:24.866Z,99657.97
2022-11-04T19:09:54.699Z,99658.75
2022-11-04T19:12:40.858Z,99666.59
2022-11-04T19:15:09.172Z,99666.03
2022-11-04T19:17:37.453Z,99664.34
2022-11-04T19:20:11.664Z,99658.25
2022-11-04T19:22:40.881Z,99664.91
2022-11-04T19:25:09.771Z,99666.19
2022-11-04T19:27:37.588Z,99659.81
2022-11-04T19:30:06.061Z,99659.94
2022-11-04T19:32:33.767Z,99656.69
2022-11-04T19:35:01.834Z,99662.84
2022-11-04T19:37:29.830Z,99663.53
2022-11-04T19:39:57.806Z,99660.22
2022-11-04T19:42:44.121Z,99667.41
2022-11-04T19:45:12.397Z,99671.09
2022-11-04T19:47:40.141Z,99674.34
2022-11-04T19:50:08.378Z,99672.25
2022-11-04T19:52:36.134Z,99661.78
2022-11-04T19:55:04.276Z,99665.59
2022-11-04T19:57:31.999Z,99667.16
2022-11-04T20:00:00.259Z,99657.09
2022-11-04T20:02:28.076Z,99658.94
2022-11-04T20:04:56.011Z,99653.81
2022-11-04T20:07:23.869Z,99650.66
2022-11-04T20:09:53.305Z,99643.66
2022-11-04T20:12:39.614Z,99642.69
2022-11-04T20:15:08.121Z,99648.25
2022-11-04T20:17:35.858Z,99653.47
2022-11-04T20:20:04.444Z,99658.06
2022-11-04T20:22:32.147Z,99663.41
2022-11-04T20:25:00.297Z,99656.47
2022-11-04T20:27:27.991Z,99670.34
2022-11-04T20:29:55.947Z,99663.63
2022-11-04T20:32:23.762Z,99661.94
2022-11-04T20:34:51.790Z,99661.81
2022-11-04T20:37:19.538Z,99654.41
2022-11-04T20:39:48.119Z,99648.72
2022-11-04T20:42:15.808Z,99657.91
2022-11-04T20:44:44.036Z,99653.59
2022-11-04T20:47:11.758Z,99647.69
2022-11-04T20:49:40.148Z,99652.22
2022-11-04T20:52:08.173Z,99667.53
2022-11-04T20:54:36.210Z,99649.66
2022-11-04T20:57:03.936Z,99658.00
2022-11-04T20:59:31.904Z,99654.72
2022-11-04T21:01:59.869Z,99655.50
2022-11-04T21:04:33.234Z,99653.69
2022-11-04T21:07:02.970Z,99654.59
2022-11-04T21:09:30.943Z,99661.38
2022-11-04T21:11:58.696Z,99675.34
2022-11-04T21:14:26.648Z,99677.03
2022-11-04T21:16:54.322Z,99671.56
2022-11-04T21:19:22.287Z,99665.50
2022-11-04T21:21:50.696Z,99662.16
2022-11-04T21:24:18.703Z,99659.59
2022-11-04T21:26:46.901Z,99662.41
2022-11-04T21:29:17.392Z,99660.16
2022-11-04T21:31:46.803Z,99658.34
2022-11-04T21:34:15.164Z,99647.66
2022-11-04T21:36:42.934Z,99650.63
2022-11-04T21:39:11.236Z,99649.13
2022-11-04T21:41:39.280Z,99637.63
2022-11-04T21:44:09.947Z,99638.59
2022-11-04T21:46:38.141Z,99636.53
2022-11-04T21:49:06.398Z,99643.75
2022-11-04T21:51:34.767Z,99643.50
2022-11-04T21:54:07.107Z,99633.72
2022-11-04T21:56:35.110Z,99642.47
2022-11-04T21:59:04.102Z,99649.00
2022-11-04T22:01:32.766Z,99647.16
2022-11-04T22:04:02.291Z,99638.66
2022-11-04T22:06:35.129Z,99651.34
2022-11-04T22:09:06.735Z,99643.63
2022-11-04T22:11:37.268Z,99642.13
2022-11-04T22:14:08.159Z,99646.88
2022-11-04T22:16:38.662Z,99645.47
2022-11-04T22:19:08.909Z,99651.84
2022-11-04T22:21:43.336Z,99648.94
2022-11-04T22:24:18.611Z,99655.19
2022-11-04T22:26:47.752Z,99648.81
2022-11-04T22:29:15.803Z,99653.44
2022-11-04T22:31:44.277Z,99656.44
2022-11-04T22:34:12.356Z,99659.50
2022-11-04T22:36:40.357Z,99656.09
2022-11-04T22:39:15.001Z,99659.63
2022-11-04T22:41:46.232Z,99651.25
2022-11-04T22:44:14.979Z,99647.66
2022-11-04T22:46:42.907Z,99648.56
2022-11-04T22:49:10.902Z,99654.16
2022-11-04T22:51:38.627Z,99644.31
2022-11-04T22:54:08.459Z,99644.16
2022-11-04T22:56:37.151Z,99638.56
2022-11-04T22:59:05.564Z,99642.34
2022-11-04T23:01:34.092Z,99641.94
2022-11-04T23:04:02.726Z,99648.06
2022-11-04T23:06:31.049Z,99652.13
2022-11-04T23:09:00.772Z,99652.81
2022-11-04T23:11:48.841Z,99657.91
2022-11-04T23:14:35.115Z,99666.66
2022-11-04T23:17:26.372Z,99664.41
2022-11-04T23:19:54.261Z,99653.81
2022-11-04T23:22:40.659Z,99662.47
2022-11-04T23:25:09.950Z,99656.31
2022-11-04T23:27:59.576Z,99669.50
2022-11-04T23:30:30.960Z,99667.44
2022-11-04T23:33:07.568Z,99667.63
2022-11-04T23:36:07.765Z,99659.47
2022-11-04T23:38:35.531Z,99663.00
2022-11-04T23:41:26.243Z,99661.91
2022-11-04T23:43:53.858Z,99663.00
2022-11-04T23:46:43.298Z,99656.25
2022-11-04T23:49:30.336Z,99664.75
2022-11-04T23:52:16.782Z,99671.63
2022-11-04T23:55:03.264Z,99668.22
2022-11-04T23:57:50.001Z,99664.56
